sensor_id;sensor_type;location;lat;lon;timestamp;pressure;altitude;pressure_sealevel;temperature;humidity
43691;BME280;29293;52.190;21.226;2023-04-24T00:01:03;99513.79;;;9.82;70.33
43691;BME280;29293;52.190;21.226;2023-04-24T00:16:12;99499.36;;;9.79;70.38
43691;BME280;29293;52.190;21.226;2023-04-24T00:31:21;99487.90;;;9.66;70.37
43691;BME280;29293;52.190;21.226;2023-04-24T00:46:31;99484.93;;;9.36;73.79
43691;BME280;29293;52.190;21.226;2023-04-24T01:01:39;99475.56;;;8.97;77.92
43691;BME280;29293;52.190;21.226;2023-04-24T01:16:47;99472.34;;;8.77;80.74
43691;BME280;29293;52.190;21.226;2023-04-24T01:31:55;99463.05;;;8.42;88.42
43691;BME280;29293;52.190;21.226;2023-04-24T01:47:02;99465.73;;;8.21;95.08
43691;BME280;29293;52.190;21.226;2023-04-24T02:02:09;99463.70;;;8.01;100.00
43691;BME280;29293;52.190;21.226;2023-04-24T02:17:16;99454.54;;;7.84;100.00
43691;BME280;29293;52.190;21.226;2023-04-24T02:32:24;99439.98;;;7.71;100.00
43691;BME280;29293;52.190;21.226;2023-04-24T02:47:31;99428.23;;;7.61;100.00
43691;BME280;29293;52.190;21.226;2023-04-24T03:02:38;99410.90;;;7.26;100.00
43691;BME280;29293;52.190;21.226;2023-04-24T03:17:45;99409.33;;;7.02;100.00
43691;BME280;29293;52.190;21.226;2023-04-24T03:32:53;99407.55;;;6.85;100.00
43691;BME280;29293;52.190;21.226;2023-04-24T03:48:00;99416.02;;;6.83;100.00
43691;BME280;29293;52.190;21.226;2023-04-24T04:03:07;99415.16;;;6.95;100.00
43691;BME280;29293;52.190;21.226;2023-04-24T04:18:14;99420.48;;;7.08;100.00
43691;BME280;29293;52.190;21.226;2023-04-24T04:33:21;99435.98;;;7.35;100.00
43691;BME280;29293;52.190;21.226;2023-04-24T04:48:28;99428.52;;;7.60;100.00
43691;BME280;29293;52.190;21.226;2023-04-24T05:03:36;99427.91;;;7.85;100.00
43691;BME280;29293;52.190;21.226;2023-04-24T05:18:43;99415.33;;;8.67;100.00
43691;BME280;29293;52.190;21.226;2023-04-24T05:33:51;99415.61;;;9.19;100.00
43691;BME280;29293;52.190;21.226;2023-04-24T05:48:57;99408.17;;;9.47;100.00
43691;BME280;29293;52.190;21.226;2023-04-24T06:04:05;99404.13;;;10.57;100.00
43691;BME280;29293;52.190;21.226;2023-04-24T06:19:12;99401.87;;;11.73;100.00
43691;BME280;29293;52.190;21.226;2023-04-24T06:34:18;99388.36;;;12.91;99.14
43691;BME280;29293;52.190;21.226;2023-04-24T06:49:25;99365.89;;;14.21;87.66
43691;BME280;29293;52.190;21.226;2023-04-24T07:04:32;99363.65;;;15.87;75.25
43691;BME280;29293;52.190;21.226;2023-04-24T07:19:39;99353.42;;;17.01;63.32
43691;BME280;29293;52.190;21.226;2023-04-24T07:34:45;99347.31;;;17.74;59.06
43691;BME280;29293;52.190;21.226;2023-04-24T07:49:52;99343.63;;;18.76;53.96
43691;BME280;29293;52.190;21.226;2023-04-24T08:04:59;99333.44;;;19.69;50.63
43691;BME280;29293;52.190;21.226;2023-04-24T08:20:07;99321.25;;;20.64;46.82
43691;BME280;29293;52.190;21.226;2023-04-24T08:35:18;99317.63;;;21.03;44.67
43691;BME280;29293;52.190;21.226;2023-04-24T08:50:25;99312.23;;;20.64;44.50
43691;BME280;29293;52.190;21.226;2023-04-24T09:05:33;99308.98;;;21.19;43.53
43691;BME280;29293;52.190;21.226;2023-04-24T09:21:00;99307.56;;;22.07;42.53
43691;BME280;29293;52.190;21.226;2023-04-24T09:36:08;99296.80;;;22.43;41.47
43691;BME280;29293;52.190;21.226;2023-04-24T09:51:15;99295.37;;;22.84;39.68
43691;BME280;29293;52.190;21.226;2023-04-24T10:06:21;99288.55;;;22.89;38.70
43691;BME280;29293;52.190;21.226;2023-04-24T10:21:29;99280.15;;;22.74;38.74
43691;BME280;29293;52.190;21.226;2023-04-24T10:36:38;99264.28;;;23.72;37.53
43691;BME280;29293;52.190;21.226;2023-04-24T10:51:48;99244.34;;;24.36;34.70
43691;BME280;29293;52.190;21.226;2023-04-24T11:06:55;99230.69;;;24.61;34.78
43691;BME280;29293;52.190;21.226;2023-04-24T11:22:03;99226.21;;;25.08;32.52
43691;BME280;29293;52.190;21.226;2023-04-24T11:37:11;99214.96;;;25.08;32.10
43691;BME280;29293;52.190;21.226;2023-04-24T11:52:18;99211.55;;;25.16;32.22
43691;BME280;29293;52.190;21.226;2023-04-24T12:07:25;99203.45;;;25.52;30.07
43691;BME280;29293;52.190;21.226;2023-04-24T12:22:45;99190.09;;;25.82;29.38
43691;BME280;29293;52.190;21.226;2023-04-24T12:37:53;99172.13;;;25.89;28.20
43691;BME280;29293;52.190;21.226;2023-04-24T12:53:00;99155.13;;;26.00;27.65
43691;BME280;29293;52.190;21.226;2023-04-24T13:08:06;99157.33;;;26.00;29.29
43691;BME280;29293;52.190;21.226;2023-04-24T13:23:13;99191.83;;;24.65;32.36
43691;BME280;29293;52.190;21.226;2023-04-24T13:38:21;99212.11;;;23.63;34.59
43691;BME280;29293;52.190;21.226;2023-04-24T13:53:28;99214.10;;;22.54;36.80
43691;BME280;29293;52.190;21.226;2023-04-24T14:08:35;99177.30;;;21.97;34.58
43691;BME280;29293;52.190;21.226;2023-04-24T14:23:42;99135.61;;;21.66;34.01
43691;BME280;29293;52.190;21.226;2023-04-24T14:38:49;99120.36;;;21.42;34.48
43691;BME280;29293;52.190;21.226;2023-04-24T14:53:57;99116.33;;;21.91;34.49
43691;BME280;29293;52.190;21.226;2023-04-24T15:09:05;99096.39;;;22.42;33.98
43691;BME280;29293;52.190;21.226;2023-04-24T15:24:12;99087.31;;;22.35;33.63
43691;BME280;29293;52.190;21.226;2023-04-24T15:39:19;99072.77;;;21.82;33.53
43691;BME280;29293;52.190;21.226;2023-04-24T16:32:28;99033.52;;;21.04;34.97
43691;BME280;29293;52.190;21.226;2023-04-24T16:47:37;99031.41;;;20.40;36.09
43691;BME280;29293;52.190;21.226;2023-04-24T17:03:09;99030.41;;;19.94;36.50
43691;BME280;29293;52.190;21.226;2023-04-24T17:18:15;99025.36;;;19.50;37.57
43691;BME280;29293;52.190;21.226;2023-04-24T17:33:23;99025.33;;;18.94;38.68
43691;BME280;29293;52.190;21.226;2023-04-24T17:48:33;99041.05;;;18.22;39.76
43691;BME280;29293;52.190;21.226;2023-04-24T18:03:40;99046.84;;;17.36;41.43
43691;BME280;29293;52.190;21.226;2023-04-24T18:18:48;99039.43;;;16.44;42.76
43691;BME280;29293;52.190;21.226;2023-04-24T18:33:55;99052.71;;;15.76;44.04
43691;BME280;29293;52.190;21.226;2023-04-24T18:49:02;99059.71;;;15.28;45.41
43691;BME280;29293;52.190;21.226;2023-04-24T19:04:09;99065.58;;;14.94;45.98
43691;BME280;29293;52.190;21.226;2023-04-24T19:19:19;99073.26;;;14.55;47.41
43691;BME280;29293;52.190;21.226;2023-04-24T19:34:31;99079.45;;;14.22;48.21
43691;BME280;29293;52.190;21.226;2023-04-24T19:49:39;99075.69;;;14.02;48.71
43691;BME280;29293;52.190;21.226;2023-04-24T20:04:46;99070.08;;;13.83;49.79
43691;BME280;29293;52.190;21.226;2023-04-24T20:19:53;99063.63;;;13.71;50.28
43691;BME280;29293;52.190;21.226;2023-04-24T20:35:00;99071.52;;;13.49;51.22
43691;BME280;29293;52.190;21.226;2023-04-24T20:50:08;99082.24;;;13.31;52.91
43691;BME280;29293;52.190;21.226;2023-04-24T21:05:16;99097.02;;;12.74;56.93
43691;BME280;29293;52.190;21.226;2023-04-24T21:20:23;99093.69;;;12.48;57.18
43691;BME280;29293;52.190;21.226;2023-04-24T21:35:30;99099.95;;;12.14;59.43
43691;BME280;29293;52.190;21.226;2023-04-24T21:50:37;99102.11;;;11.65;63.58
43691;BME280;29293;52.190;21.226;2023-04-24T22:05:44;99101.15;;;11.30;67.59
43691;BME280;29293;52.190;21.226;2023-04-24T22:20:51;99092.60;;;11.03;73.41
43691;BME280;29293;52.190;21.226;2023-04-24T22:36:00;99097.16;;;10.90;80.79
43691;BME280;29293;52.190;21.226;2023-04-24T22:51:07;99099.97;;;10.83;86.40
43691;BME280;29293;52.190;21.226;2023-04-24T23:06:15;99105.43;;;10.75;91.10
43691;BME280;29293;52.190;21.226;2023-04-24T23:21:21;99098.03;;;10.62;97.18
43691;BME280;29293;52.190;21.226;2023-04-24T23:36:28;99103.45;;;10.34;100.00
43691;BME280;29293;52.190;21.226;2023-04-24T23:51:36;99097.63;;;10.10;100.00
